Time;durP1;ratioP1;P1;durP2;ratioP2;P2;SDS_P1;SDS_P2;PMS_P1;PMS_P2;Temp;Humidity;BMP_temperature;BMP_pressure;BME280_temperature;BME280_humidity;BME280_pressure;Samples;Min_cycle;Max_cycle;Signal;HPM_P1;HPM_P2
2022/12/23 00:01:36;;;;;;;;;;;9.50;99.90;;;;;;4928989;29;20021;-63
2022/12/23 00:04:04;;;;;;;;;;;9.40;99.90;;;;;;4928627;29;19953;-62
2022/12/23 00:06:32;;;;;;;;;;;9.50;99.90;;;;;;4928816;29;20053;-62
2022/12/23 00:08:59;;;;;;;;;;;9.40;99.90;;;;;;4928821;29;20304;-62
2022/12/23 00:11:28;;;;;;;;;;;9.40;99.90;;;;;;4926564;29;19927;-62
2022/12/23 00:16:48;;;;;;;;;;;9.60;99.90;;;;;;4926993;28;19937;-63
2022/12/23 00:19:16;;;;;;;;;;;9.60;99.90;;;;;;4929508;28;19934;-62
2022/12/23 00:21:44;;;;;;;;;;;9.60;99.90;;;;;;4928597;28;19937;-63
2022/12/23 00:24:12;;;;;;;;;;;9.50;99.90;;;;;;4929653;29;19927;-62
2022/12/23 00:26:41;;;;;;;;;;;9.60;99.90;;;;;;4928585;29;19927;-62
2022/12/23 00:29:08;;;;;;;;;;;9.70;99.90;;;;;;4926259;29;19933;-62
2022/12/23 00:34:33;;;;;;;;;;;9.80;99.90;;;;;;4984625;28;20372;-65
2022/12/23 00:37:01;;;;;;;;;;;9.80;99.90;;;;;;4987226;28;20363;-63
2022/12/23 00:45:19;;;;;;;;;;;9.70;99.90;;;;;;4987796;28;19968;-64
2022/12/23 00:50:34;;;;;;;;;;;9.80;99.90;;;;;;4988828;28;19956;-64
2022/12/23 00:53:02;;;;;;;;;;;9.70;99.90;;;;;;4988018;28;20075;-64
2022/12/23 00:55:30;;;;;;;;;;;9.60;99.90;;;;;;4984658;28;19925;-63
2022/12/23 00:57:59;;;;;;;;;;;9.70;99.90;;;;;;4994672;28;20028;-64
2022/12/23 01:05:57;;;;;;;;;;;9.70;99.90;;;;;;4986672;28;20018;-64
2022/12/23 01:08:25;;;;;;;;;;;9.80;99.90;;;;;;4992296;28;19969;-64
2022/12/23 01:10:53;;;;;;;;;;;9.80;99.90;;;;;;4987769;28;20021;-64
2022/12/23 01:13:22;;;;;;;;;;;9.80;99.90;;;;;;4988946;28;19926;-63
2022/12/23 01:15:49;;;;;;;;;;;9.90;99.90;;;;;;4981095;28;20009;-63
2022/12/23 01:18:17;;;;;;;;;;;10.00;99.90;;;;;;4983710;28;20284;-63
2022/12/23 01:20:45;;;;;;;;;;;10.20;99.90;;;;;;4990222;28;19925;-63
2022/12/23 01:23:13;;;;;;;;;;;10.30;99.90;;;;;;4991288;28;19932;-63
2022/12/23 01:25:40;;;;;;;;;;;10.40;99.90;;;;;;4995079;28;19930;-64
2022/12/23 01:28:08;;;;;;;;;;;10.40;99.90;;;;;;4994983;28;19932;-63
2022/12/23 01:30:38;;;;;;;;;;;10.50;99.90;;;;;;4989377;28;19932;-64
2022/12/23 01:33:05;;;;;;;;;;;10.60;99.90;;;;;;4949179;28;20010;-63
2022/12/23 01:35:33;;;;;;;;;;;10.70;99.90;;;;;;4910467;29;20023;-63
2022/12/23 01:38:01;;;;;;;;;;;10.70;99.90;;;;;;4909114;29;20013;-63
2022/12/23 01:40:33;;;;;;;;;;;10.80;99.90;;;;;;4922320;28;20031;-63
2022/12/23 01:43:00;;;;;;;;;;;10.80;99.90;;;;;;4912708;29;19931;-63
2022/12/23 01:45:28;;;;;;;;;;;10.80;99.90;;;;;;4915562;28;19937;-63
2022/12/23 01:47:58;;;;;;;;;;;10.90;99.90;;;;;;4908581;29;19927;-63
2022/12/23 01:50:27;;;;;;;;;;;10.80;99.90;;;;;;4909328;28;20014;-64
2022/12/23 01:52:59;;;;;;;;;;;10.80;99.90;;;;;;4906207;29;19931;-66
2022/12/23 01:55:36;;;;;;;;;;;10.90;99.90;;;;;;4910412;29;20389;-66
2022/12/23 01:58:07;;;;;;;;;;;10.90;99.90;;;;;;4911028;29;19953;-66
2022/12/23 02:11:47;;;;;;;;;;;10.60;99.90;;;;;;4916759;28;19927;-64
2022/12/23 02:17:09;;;;;;;;;;;10.30;99.90;;;;;;4907012;29;20025;-63
2022/12/23 02:19:51;;;;;;;;;;;10.30;99.90;;;;;;4908755;29;19927;-64
2022/12/23 02:22:28;;;;;;;;;;;10.10;99.90;;;;;;4907719;29;19931;-64
2022/12/23 02:25:01;;;;;;;;;;;10.20;99.90;;;;;;4909380;29;19986;-64
2022/12/23 02:27:30;;;;;;;;;;;10.10;99.90;;;;;;4910817;29;19970;-64
2022/12/23 02:30:05;;;;;;;;;;;10.10;99.90;;;;;;4908204;28;19931;-64
2022/12/23 02:32:40;;;;;;;;;;;10.20;99.90;;;;;;4904016;29;19958;-63
2022/12/23 02:35:11;;;;;;;;;;;10.10;99.90;;;;;;4915567;28;19943;-64
2022/12/23 02:37:43;;;;;;;;;;;10.10;99.90;;;;;;4910339;29;20029;-63
2022/12/23 02:40:12;;;;;;;;;;;10.00;99.90;;;;;;4909461;28;20018;-64
2022/12/23 02:42:45;;;;;;;;;;;10.00;99.90;;;;;;4911638;29;19942;-63
2022/12/23 02:45:15;;;;;;;;;;;10.00;99.90;;;;;;4901555;28;19959;-63
2022/12/23 02:47:49;;;;;;;;;;;10.10;99.90;;;;;;4904927;29;20364;-63
2022/12/23 02:50:18;;;;;;;;;;;10.10;99.90;;;;;;4910551;29;19927;-63
2022/12/23 02:52:47;;;;;;;;;;;10.00;99.90;;;;;;4910569;29;20013;-63
2022/12/23 02:55:16;;;;;;;;;;;10.00;99.90;;;;;;4910303;29;19927;-63
2022/12/23 02:57:46;;;;;;;;;;;10.10;99.90;;;;;;4909982;29;19942;-63
2022/12/23 03:00:14;;;;;;;;;;;10.00;99.90;;;;;;4909176;29;19950;-63
2022/12/23 03:02:43;;;;;;;;;;;10.00;99.90;;;;;;4908331;29;20363;-63
2022/12/23 03:05:24;;;;;;;;;;;10.10;99.90;;;;;;4908377;28;19931;-63
2022/12/23 03:07:53;;;;;;;;;;;10.10;99.90;;;;;;4907231;29;19933;-64
2022/12/23 03:10:26;;;;;;;;;;;10.00;99.90;;;;;;4908768;29;20029;-64
2022/12/23 03:12:58;;;;;;;;;;;10.10;99.90;;;;;;4910831;29;19927;-64
2022/12/23 03:15:32;;;;;;;;;;;10.10;99.90;;;;;;4904402;29;19927;-64
2022/12/23 03:18:03;;;;;;;;;;;10.10;99.90;;;;;;4932948;28;19980;-63
2022/12/23 03:20:36;;;;;;;;;;;10.10;99.90;;;;;;4905548;28;20034;-64
2022/12/23 03:23:08;;;;;;;;;;;10.10;99.90;;;;;;4904916;29;19961;-64
2022/12/23 03:25:37;;;;;;;;;;;10.20;99.90;;;;;;4908182;28;19962;-64
2022/12/23 03:28:10;;;;;;;;;;;10.10;99.90;;;;;;4909194;29;19939;-63
2022/12/23 03:30:40;;;;;;;;;;;10.10;99.90;;;;;;4903045;29;19978;-63
2022/12/23 03:33:11;;;;;;;;;;;10.00;99.90;;;;;;4938202;28;19930;-63
2022/12/23 03:35:42;;;;;;;;;;;10.00;99.90;;;;;;4901246;29;19928;-63
2022/12/23 03:38:11;;;;;;;;;;;9.90;99.90;;;;;;4900875;29;19927;-63
2022/12/23 03:40:41;;;;;;;;;;;9.80;99.90;;;;;;4912222;29;20038;-64
2022/12/23 03:43:12;;;;;;;;;;;9.80;99.90;;;;;;4911627;29;19942;-64
2022/12/23 03:45:43;;;;;;;;;;;9.80;99.90;;;;;;4910796;29;19933;-63
2022/12/23 03:48:13;;;;;;;;;;;9.60;99.90;;;;;;4909147;29;20282;-64
2022/12/23 03:50:42;;;;;;;;;;;9.70;99.90;;;;;;4906948;29;19938;-63
2022/12/23 03:53:11;;;;;;;;;;;9.60;99.90;;;;;;4909712;28;19927;-63
2022/12/23 03:55:43;;;;;;;;;;;9.60;99.90;;;;;;4903386;29;19933;-63
2022/12/23 03:58:14;;;;;;;;;;;9.60;99.90;;;;;;4975439;28;20396;-63
2022/12/23 04:00:44;;;;;;;;;;;9.60;99.90;;;;;;4907194;28;19933;-63
2022/12/23 04:03:17;;;;;;;;;;;9.60;99.90;;;;;;4905201;28;20039;-64
2022/12/23 04:05:49;;;;;;;;;;;9.70;99.90;;;;;;4914662;28;19935;-63
2022/12/23 04:08:19;;;;;;;;;;;9.60;99.90;;;;;;4909731;29;19949;-63
2022/12/23 04:10:47;;;;;;;;;;;9.50;99.90;;;;;;4905958;29;19935;-64
2022/12/23 04:13:14;;;;;;;;;;;9.50;99.90;;;;;;4908733;28;19942;-63
2022/12/23 04:15:42;;;;;;;;;;;9.40;99.90;;;;;;4921799;28;21701;-64
2022/12/23 04:18:11;;;;;;;;;;;9.40;99.90;;;;;;4907894;29;20019;-63
2022/12/23 04:20:38;;;;;;;;;;;9.30;99.90;;;;;;4909674;29;19934;-63
2022/12/23 04:23:07;;;;;;;;;;;9.20;99.90;;;;;;4912611;29;19967;-63
2022/12/23 04:25:35;;;;;;;;;;;9.20;99.90;;;;;;4912854;28;20009;-63
2022/12/23 04:28:03;;;;;;;;;;;9.20;99.90;;;;;;4911427;28;20018;-63
2022/12/23 04:30:31;;;;;;;;;;;9.20;99.90;;;;;;4911385;28;19931;-63
2022/12/23 04:33:01;;;;;;;;;;;9.30;99.90;;;;;;4905933;28;19931;-63
2022/12/23 04:35:29;;;;;;;;;;;9.30;99.90;;;;;;4913230;28;19927;-63
2022/12/23 04:37:57;;;;;;;;;;;9.40;99.90;;;;;;4913814;29;19927;-63
2022/12/23 04:40:26;;;;;;;;;;;9.40;99.90;;;;;;4907602;28;20018;-63
2022/12/23 04:42:53;;;;;;;;;;;9.50;99.90;;;;;;4913656;29;20014;-63
2022/12/23 04:45:21;;;;;;;;;;;9.30;99.90;;;;;;4911305;29;19927;-63
2022/12/23 04:47:49;;;;;;;;;;;9.30;99.90;;;;;;4908094;29;19931;-63
2022/12/23 04:50:16;;;;;;;;;;;9.10;99.90;;;;;;4911125;29;20311;-63
2022/12/23 04:52:44;;;;;;;;;;;9.10;99.90;;;;;;4912541;29;19927;-63
2022/12/23 04:55:12;;;;;;;;;;;9.10;99.90;;;;;;4912146;29;20034;-64
2022/12/23 04:57:41;;;;;;;;;;;9.00;99.90;;;;;;4923022;28;19937;-63
2022/12/23 05:00:09;;;;;;;;;;;9.10;99.90;;;;;;4929830;28;20047;-63
2022/12/23 05:02:37;;;;;;;;;;;9.10;99.90;;;;;;4908043;29;19927;-62
2022/12/23 05:05:05;;;;;;;;;;;9.10;99.90;;;;;;4928461;28;19935;-63
2022/12/23 05:07:33;;;;;;;;;;;9.20;99.90;;;;;;4912719;29;20463;-63
2022/12/23 05:10:02;;;;;;;;;;;9.20;99.90;;;;;;4912647;29;19978;-63
2022/12/23 05:12:30;;;;;;;;;;;9.30;99.90;;;;;;4913971;29;20042;-63
2022/12/23 05:14:59;;;;;;;;;;;9.40;99.90;;;;;;4913680;29;19927;-63
2022/12/23 05:17:27;;;;;;;;;;;9.50;99.90;;;;;;4914097;29;19935;-63
2022/12/23 05:19:54;;;;;;;;;;;9.50;99.90;;;;;;4908283;29;20466;-63
2022/12/23 05:22:22;;;;;;;;;;;9.40;99.90;;;;;;4912195;29;19934;-63
2022/12/23 05:24:50;;;;;;;;;;;9.40;99.90;;;;;;4912963;29;19927;-63
2022/12/23 05:27:17;;;;;;;;;;;9.30;99.90;;;;;;4908658;28;19937;-63
2022/12/23 05:29:45;;;;;;;;;;;9.20;99.90;;;;;;4913906;29;19934;-64
2022/12/23 05:32:14;;;;;;;;;;;9.30;99.90;;;;;;4909389;28;19933;-64
2022/12/23 05:34:42;;;;;;;;;;;9.20;99.90;;;;;;4913268;29;20010;-63
2022/12/23 05:37:09;;;;;;;;;;;9.10;99.90;;;;;;4913064;29;19965;-63
2022/12/23 05:39:37;;;;;;;;;;;9.00;99.90;;;;;;4913175;28;19927;-63
2022/12/23 05:42:05;;;;;;;;;;;8.90;99.90;;;;;;4907165;29;20486;-63
2022/12/23 05:44:33;;;;;;;;;;;8.90;99.90;;;;;;4916751;28;19933;-65
2022/12/23 05:47:00;;;;;;;;;;;8.90;99.90;;;;;;4907080;29;19937;-63
2022/12/23 05:49:30;;;;;;;;;;;8.80;99.90;;;;;;4906060;29;19958;-63
2022/12/23 05:51:57;;;;;;;;;;;8.80;99.90;;;;;;4911977;29;19934;-63
2022/12/23 05:54:25;;;;;;;;;;;8.80;99.90;;;;;;4912149;28;19931;-63
2022/12/23 05:56:53;;;;;;;;;;;8.80;99.90;;;;;;4909412;29;20456;-63
2022/12/23 05:59:21;;;;;;;;;;;8.70;99.90;;;;;;4911485;29;19932;-63
2022/12/23 06:01:53;;;;;;;;;;;8.60;99.90;;;;;;4908117;29;19935;-63
2022/12/23 06:04:21;;;;;;;;;;;8.60;99.90;;;;;;4898051;28;20615;-63
2022/12/23 06:06:50;;;;;;;;;;;8.50;99.90;;;;;;4906780;28;19927;-63
2022/12/23 06:09:17;;;;;;;;;;;8.40;99.90;;;;;;4910083;29;19962;-63
2022/12/23 06:11:45;;;;;;;;;;;8.40;99.90;;;;;;4911062;29;19982;-63
2022/12/23 06:14:13;;;;;;;;;;;8.40;99.90;;;;;;4907755;28;19935;-63
2022/12/23 06:16:40;;;;;;;;;;;8.40;99.90;;;;;;4903969;29;19933;-63
2022/12/23 06:19:08;;;;;;;;;;;8.40;99.90;;;;;;4906349;29;19931;-63
2022/12/23 06:21:36;;;;;;;;;;;8.40;99.90;;;;;;4910178;29;20022;-63
2022/12/23 06:24:06;;;;;;;;;;;8.40;99.90;;;;;;4908865;28;19979;-63
2022/12/23 06:26:34;;;;;;;;;;;8.40;99.90;;;;;;4910786;29;19927;-63
2022/12/23 06:29:02;;;;;;;;;;;8.40;99.90;;;;;;4903832;28;19965;-63
2022/12/23 06:31:30;;;;;;;;;;;8.40;99.90;;;;;;4900612;29;20452;-63
2022/12/23 06:33:57;;;;;;;;;;;8.30;99.90;;;;;;4950460;22;19935;-63
2022/12/23 06:36:25;;;;;;;;;;;8.30;99.90;;;;;;4945634;28;19927;-63
2022/12/23 06:38:53;;;;;;;;;;;8.40;99.90;;;;;;4943670;29;19933;-64
2022/12/23 06:41:22;;;;;;;;;;;8.40;99.90;;;;;;4943954;29;20468;-64
2022/12/23 06:43:50;;;;;;;;;;;8.40;99.90;;;;;;4947040;28;19926;-64
2022/12/23 06:46:21;;;;;;;;;;;8.40;99.90;;;;;;4947368;28;19981;-63
2022/12/23 06:48:49;;;;;;;;;;;8.50;99.90;;;;;;4947611;28;19997;-64
2022/12/23 06:51:16;;;;;;;;;;;8.50;99.90;;;;;;4949275;28;20022;-64
2022/12/23 06:53:44;;;;;;;;;;;8.50;99.90;;;;;;4952045;28;19972;-64
2022/12/23 06:56:12;;;;;;;;;;;8.50;99.90;;;;;;4953628;28;19984;-64
2022/12/23 06:58:41;;;;;;;;;;;8.50;99.90;;;;;;4952760;28;20314;-64
2022/12/23 07:01:08;;;;;;;;;;;8.60;99.90;;;;;;4946221;28;20299;-64
2022/12/23 07:03:37;;;;;;;;;;;8.60;99.90;;;;;;4946282;28;20022;-64
2022/12/23 07:06:05;;;;;;;;;;;8.60;99.90;;;;;;4948694;28;19930;-64
2022/12/23 07:08:32;;;;;;;;;;;8.70;99.90;;;;;;4949410;28;19984;-64
2022/12/23 07:11:02;;;;;;;;;;;8.70;99.90;;;;;;4946305;28;19930;-64
2022/12/23 07:13:29;;;;;;;;;;;8.70;99.90;;;;;;4946898;28;20036;-64
2022/12/23 07:15:59;;;;;;;;;;;8.80;99.90;;;;;;4949032;28;19930;-64
2022/12/23 07:18:27;;;;;;;;;;;8.90;99.90;;;;;;4949821;28;19965;-64
2022/12/23 07:20:59;;;;;;;;;;;8.80;99.90;;;;;;4947715;28;19930;-65
2022/12/23 07:23:26;;;;;;;;;;;8.90;99.90;;;;;;4949761;28;20435;-64
2022/12/23 07:25:54;;;;;;;;;;;8.90;99.90;;;;;;4947617;28;19926;-64
2022/12/23 07:28:22;;;;;;;;;;;8.90;99.90;;;;;;4950869;28;19927;-63
2022/12/23 07:30:50;;;;;;;;;;;9.00;99.90;;;;;;4948249;28;19927;-64
2022/12/23 07:33:19;;;;;;;;;;;8.90;99.90;;;;;;4948912;28;19954;-64
2022/12/23 07:35:46;;;;;;;;;;;9.00;99.90;;;;;;4947930;28;20025;-64
2022/12/23 07:38:14;;;;;;;;;;;9.00;99.90;;;;;;4951062;29;19930;-64
2022/12/23 07:40:42;;;;;;;;;;;9.00;99.90;;;;;;4950502;28;20292;-63
2022/12/23 07:43:10;;;;;;;;;;;9.00;99.90;;;;;;4951048;29;19933;-64
2022/12/23 07:45:37;;;;;;;;;;;9.00;99.90;;;;;;4950689;29;20029;-64
2022/12/23 07:48:05;;;;;;;;;;;9.10;99.90;;;;;;4951100;29;20461;-64
2022/12/23 07:50:34;;;;;;;;;;;9.10;99.90;;;;;;4950583;28;20021;-64
2022/12/23 07:53:03;;;;;;;;;;;9.10;99.90;;;;;;4950958;29;20362;-64
2022/12/23 07:55:30;;;;;;;;;;;9.20;99.90;;;;;;4962514;28;19933;-64
2022/12/23 07:57:58;;;;;;;;;;;9.20;99.90;;;;;;5009882;28;19963;-64
2022/12/23 08:00:26;;;;;;;;;;;9.30;99.90;;;;;;5050817;28;19925;-64
2022/12/23 08:02:53;;;;;;;;;;;9.30;99.90;;;;;;5051636;28;20015;-64
2022/12/23 08:05:21;;;;;;;;;;;9.20;99.90;;;;;;5051400;28;20023;-63
2022/12/23 08:07:51;;;;;;;;;;;9.30;99.90;;;;;;4955646;28;20322;-63
2022/12/23 08:10:18;;;;;;;;;;;9.40;99.90;;;;;;4949999;29;19926;-64
2022/12/23 08:12:46;;;;;;;;;;;9.40;99.90;;;;;;4950715;29;19927;-64
2022/12/23 08:15:14;;;;;;;;;;;9.40;99.90;;;;;;4950533;29;19968;-63
2022/12/23 08:17:41;;;;;;;;;;;9.50;99.90;;;;;;4950759;29;19927;-64
2022/12/23 08:20:09;;;;;;;;;;;9.50;99.90;;;;;;4949988;29;19980;-64
2022/12/23 08:22:37;;;;;;;;;;;9.60;99.90;;;;;;4967415;28;19966;-64
2022/12/23 08:25:07;;;;;;;;;;;9.60;99.90;;;;;;4963988;28;19965;-63
2022/12/23 08:27:34;;;;;;;;;;;9.70;99.90;;;;;;5007837;28;20011;-64
2022/12/23 08:30:02;;;;;;;;;;;9.70;99.90;;;;;;5050748;28;19978;-64
2022/12/23 08:32:30;;;;;;;;;;;9.70;99.90;;;;;;5051426;28;19929;-63
2022/12/23 08:34:57;;;;;;;;;;;9.60;99.90;;;;;;5051076;28;20301;-62
2022/12/23 08:37:25;;;;;;;;;;;9.70;99.90;;;;;;4983693;28;20040;-64
2022/12/23 08:39:53;;;;;;;;;;;9.60;99.90;;;;;;4968967;28;20419;-63
2022/12/23 08:42:22;;;;;;;;;;;9.60;99.90;;;;;;4969571;28;20026;-63
2022/12/23 08:44:49;;;;;;;;;;;9.50;99.90;;;;;;4969531;28;20025;-64
2022/12/23 08:47:17;;;;;;;;;;;9.50;99.90;;;;;;4969517;28;19977;-63
2022/12/23 08:49:45;;;;;;;;;;;9.50;99.90;;;;;;4969105;28;20408;-63
2022/12/23 08:52:12;;;;;;;;;;;9.40;99.90;;;;;;4969552;28;19969;-63
2022/12/23 08:54:40;;;;;;;;;;;9.50;99.90;;;;;;4967071;28;19926;-63
2022/12/23 08:57:08;;;;;;;;;;;9.50;99.90;;;;;;4987015;28;20024;-63
2022/12/23 08:59:37;;;;;;;;;;;9.50;99.90;;;;;;4981004;28;20395;-63
2022/12/23 09:02:05;;;;;;;;;;;9.60;99.90;;;;;;4950193;28;20303;-64
2022/12/23 09:04:33;;;;;;;;;;;9.60;99.90;;;;;;4950188;29;19933;-64
2022/12/23 09:07:00;;;;;;;;;;;9.50;99.90;;;;;;4951788;29;20323;-64
2022/12/23 09:09:28;;;;;;;;;;;9.50;99.90;;;;;;4953506;28;20338;-63
2022/12/23 09:11:56;;;;;;;;;;;9.60;99.90;;;;;;4960687;28;19958;-64
2022/12/23 09:14:24;;;;;;;;;;;9.60;99.90;;;;;;4972279;28;19973;-65
2022/12/23 09:16:53;;;;;;;;;;;9.70;99.90;;;;;;4972586;28;19926;-64
2022/12/23 09:19:21;;;;;;;;;;;9.70;99.90;;;;;;4972494;28;20021;-64
2022/12/23 09:21:48;;;;;;;;;;;9.80;99.90;;;;;;4972243;28;20026;-64
2022/12/23 09:24:16;;;;;;;;;;;9.90;99.90;;;;;;4972550;28;19980;-64
2022/12/23 09:26:44;;;;;;;;;;;9.90;99.90;;;;;;4994909;28;19926;-64
2022/12/23 09:29:11;;;;;;;;;;;9.90;99.90;;;;;;5036590;28;19931;-64
2022/12/23 09:31:39;;;;;;;;;;;9.90;99.90;;;;;;5053733;28;20023;-64
2022/12/23 09:34:10;;;;;;;;;;;10.00;99.90;;;;;;5053776;28;19932;-64
2022/12/23 09:36:38;;;;;;;;;;;10.00;99.90;;;;;;4967746;28;20438;-64
2022/12/23 09:39:05;;;;;;;;;;;10.00;99.90;;;;;;4953139;29;20021;-64
2022/12/23 09:41:41;;;;;;;;;;;10.10;99.90;;;;;;4954996;28;19948;-64
2022/12/23 09:44:14;;;;;;;;;;;10.10;99.90;;;;;;4972304;28;20036;-64
2022/12/23 09:46:45;;;;;;;;;;;10.20;99.90;;;;;;4954409;28;19930;-64
2022/12/23 09:49:15;;;;;;;;;;;10.20;99.90;;;;;;4953006;29;19933;-63
2022/12/23 09:51:45;;;;;;;;;;;10.20;99.90;;;;;;4952365;28;19926;-64
2022/12/23 09:54:15;;;;;;;;;;;10.20;99.90;;;;;;4952849;28;20024;-63
2022/12/23 09:56:47;;;;;;;;;;;10.30;99.90;;;;;;5009984;28;19924;-64
2022/12/23 09:59:22;;;;;;;;;;;10.30;99.90;;;;;;4968154;28;19966;-63
2022/12/23 10:01:55;;;;;;;;;;;10.30;99.90;;;;;;4952261;29;20391;-64
2022/12/23 10:04:33;;;;;;;;;;;10.30;99.90;;;;;;4952745;28;20425;-63
2022/12/23 10:07:25;;;;;;;;;;;10.30;99.90;;;;;;4952466;29;19926;-64
2022/12/23 10:09:54;;;;;;;;;;;10.30;99.90;;;;;;4952073;29;20767;-63
2022/12/23 10:12:28;;;;;;;;;;;10.30;99.90;;;;;;4962468;28;19933;-64
2022/12/23 10:15:11;;;;;;;;;;;10.30;99.90;;;;;;4972011;28;19972;-63
2022/12/23 10:17:41;;;;;;;;;;;10.30;99.90;;;;;;4970567;28;20021;-64
2022/12/23 10:20:16;;;;;;;;;;;10.30;99.90;;;;;;4971020;28;19962;-63
2022/12/23 10:22:45;;;;;;;;;;;10.30;99.90;;;;;;4971866;28;19936;-63
2022/12/23 10:25:14;;;;;;;;;;;10.30;99.90;;;;;;4976538;28;19932;-63
2022/12/23 10:27:43;;;;;;;;;;;10.30;99.90;;;;;;4994557;28;20009;-64
2022/12/23 10:30:12;;;;;;;;;;;10.30;99.90;;;;;;4951577;29;19938;-63
2022/12/23 10:33:04;;;;;;;;;;;10.40;99.90;;;;;;4951916;28;19926;-64
2022/12/23 10:35:45;;;;;;;;;;;10.40;99.90;;;;;;4952243;29;19957;-64
2022/12/23 10:38:21;;;;;;;;;;;10.40;99.90;;;;;;4952110;28;19972;-64
2022/12/23 10:40:54;;;;;;;;;;;10.40;99.90;;;;;;4951362;29;19977;-64
2022/12/23 10:43:25;;;;;;;;;;;10.50;99.90;;;;;;4968068;28;19926;-64
2022/12/23 10:45:59;;;;;;;;;;;10.40;99.90;;;;;;4971464;28;20021;-63
2022/12/23 10:48:33;;;;;;;;;;;10.40;99.90;;;;;;4971460;28;19962;-64
2022/12/23 10:51:04;;;;;;;;;;;10.30;99.90;;;;;;4970628;28;20317;-65
2022/12/23 10:53:37;;;;;;;;;;;10.20;99.90;;;;;;4971243;28;19926;-63
2022/12/23 10:56:05;;;;;;;;;;;10.10;99.90;;;;;;4994847;28;20300;-64
2022/12/23 10:58:35;;;;;;;;;;;10.10;99.90;;;;;;5017330;28;19952;-64
2022/12/23 11:01:04;;;;;;;;;;;10.00;99.90;;;;;;5052092;28;19932;-63
2022/12/23 11:03:43;;;;;;;;;;;10.00;99.90;;;;;;5052650;28;19936;-64
2022/12/23 11:06:13;;;;;;;;;;;9.90;99.90;;;;;;5052333;28;19968;-63
2022/12/23 11:08:41;;;;;;;;;;;9.90;99.90;;;;;;5052761;28;19933;-64
2022/12/23 11:11:09;;;;;;;;;;;9.90;99.90;;;;;;5051680;28;20019;-64
2022/12/23 11:13:37;;;;;;;;;;;9.90;99.90;;;;;;4952100;28;19933;-63
2022/12/23 11:16:12;;;;;;;;;;;10.00;99.90;;;;;;4951758;29;20466;-64
2022/12/23 11:18:51;;;;;;;;;;;9.90;99.90;;;;;;4951405;29;20308;-64
2022/12/23 11:21:20;;;;;;;;;;;9.90;99.90;;;;;;4950876;29;20021;-64
2022/12/23 11:24:05;;;;;;;;;;;9.90;99.90;;;;;;4951489;29;19926;-64
2022/12/23 11:26:32;;;;;;;;;;;10.00;99.90;;;;;;4992241;28;19934;-64
2022/12/23 11:29:04;;;;;;;;;;;10.10;99.90;;;;;;5026435;28;20016;-64
2022/12/23 11:31:34;;;;;;;;;;;10.10;99.90;;;;;;5051524;28;20409;-64
2022/12/23 11:34:04;;;;;;;;;;;10.10;99.90;;;;;;5051882;28;19925;-64
2022/12/23 11:36:33;;;;;;;;;;;10.10;99.90;;;;;;5051945;28;20328;-64
2022/12/23 11:39:03;;;;;;;;;;;10.10;99.90;;;;;;5052043;28;20353;-63
2022/12/23 11:41:34;;;;;;;;;;;10.00;99.90;;;;;;5036737;28;20318;-63
2022/12/23 11:44:04;;;;;;;;;;;9.90;99.90;;;;;;4963195;28;20033;-64
2022/12/23 11:46:33;;;;;;;;;;;9.90;99.90;;;;;;4951464;29;20391;-65
2022/12/23 11:49:14;;;;;;;;;;;9.90;99.90;;;;;;4951426;28;19973;-64
2022/12/23 11:51:45;;;;;;;;;;;10.00;99.90;;;;;;4950781;29;19984;-64
2022/12/23 11:54:17;;;;;;;;;;;10.00;99.90;;;;;;4950818;29;20021;-64
2022/12/23 11:56:47;;;;;;;;;;;10.00;99.90;;;;;;4995265;28;20378;-64
2022/12/23 11:59:29;;;;;;;;;;;10.10;99.90;;;;;;5039384;28;20015;-63
2022/12/23 12:01:58;;;;;;;;;;;10.20;99.90;;;;;;5052246;28;19935;-64
2022/12/23 12:04:26;;;;;;;;;;;10.30;99.90;;;;;;5051740;28;19968;-64
2022/12/23 12:06:56;;;;;;;;;;;10.30;99.90;;;;;;5051689;28;19931;-65
2022/12/23 12:09:24;;;;;;;;;;;10.30;99.90;;;;;;5051711;28;19931;-64
2022/12/23 12:11:53;;;;;;;;;;;10.30;99.90;;;;;;5034318;28;19966;-64
2022/12/23 12:14:22;;;;;;;;;;;10.30;99.90;;;;;;4970383;28;19926;-63
2022/12/23 12:16:53;;;;;;;;;;;10.20;99.90;;;;;;4970117;28;20586;-64
2022/12/23 12:19:23;;;;;;;;;;;10.30;99.90;;;;;;4970100;28;19948;-64
2022/12/23 12:21:54;;;;;;;;;;;10.20;99.90;;;;;;4969591;28;20447;-64
2022/12/23 12:24:25;;;;;;;;;;;10.20;99.90;;;;;;4969978;28;20415;-64
2022/12/23 12:26:56;;;;;;;;;;;10.20;99.90;;;;;;4992460;28;19927;-64
2022/12/23 12:29:26;;;;;;;;;;;10.30;99.90;;;;;;5042797;28;20365;-64
2022/12/23 12:31:56;;;;;;;;;;;10.30;99.90;;;;;;5050798;28;19929;-64
2022/12/23 12:34:29;;;;;;;;;;;10.30;99.90;;;;;;5026598;22;19926;-63
2022/12/23 12:37:00;;;;;;;;;;;10.40;99.90;;;;;;4964516;28;20418;-64
2022/12/23 12:39:32;;;;;;;;;;;10.40;99.90;;;;;;4969521;28;19987;-63
2022/12/23 12:42:02;;;;;;;;;;;10.40;99.90;;;;;;4972440;28;20021;-63
2022/12/23 12:44:34;;;;;;;;;;;10.50;99.90;;;;;;5021276;28;20019;-63
2022/12/23 12:47:05;;;;;;;;;;;10.50;99.90;;;;;;5055346;28;19947;-63
2022/12/23 12:49:56;;;;;;;;;;;10.50;99.90;;;;;;5054693;28;19931;-63
2022/12/23 12:52:25;;;;;;;;;;;10.60;99.90;;;;;;5055349;28;20368;-63
2022/12/23 12:54:56;;;;;;;;;;;10.60;99.90;;;;;;5042400;28;19926;-63
2022/12/23 12:57:24;;;;;;;;;;;10.60;99.90;;;;;;4964792;28;19927;-64
2022/12/23 12:59:55;;;;;;;;;;;10.70;99.90;;;;;;4972121;28;20032;-63
2022/12/23 13:02:40;;;;;;;;;;;10.70;99.90;;;;;;4972841;28;19926;-63
2022/12/23 13:05:15;;;;;;;;;;;10.70;99.90;;;;;;4973129;28;19926;-63
2022/12/23 13:07:52;;;;;;;;;;;10.70;99.90;;;;;;4972507;28;20401;-63
2022/12/23 13:10:28;;;;;;;;;;;10.70;99.90;;;;;;4972056;28;19926;-63
2022/12/23 13:12:59;;;;;;;;;;;10.60;99.90;;;;;;4971877;28;19952;-63
2022/12/23 13:15:29;;;;;;;;;;;10.60;99.90;;;;;;4972968;28;19926;-63
2022/12/23 13:18:03;;;;;;;;;;;10.60;99.90;;;;;;4972530;28;20012;-63
2022/12/23 13:20:33;;;;;;;;;;;10.50;99.90;;;;;;4971826;28;20028;-63
2022/12/23 13:23:03;;;;;;;;;;;10.50;99.90;;;;;;4972516;28;19933;-63
2022/12/23 13:25:56;;;;;;;;;;;10.50;99.90;;;;;;4972594;28;19926;-63
2022/12/23 13:28:30;;;;;;;;;;;10.60;99.90;;;;;;4963861;28;20020;-63
2022/12/23 13:31:02;;;;;;;;;;;10.60;99.90;;;;;;4971726;28;19926;-63
2022/12/23 13:33:34;;;;;;;;;;;10.70;99.90;;;;;;4972185;28;20311;-63
2022/12/23 13:36:11;;;;;;;;;;;10.70;99.90;;;;;;4972457;28;19926;-63
2022/12/23 13:38:52;;;;;;;;;;;10.70;99.90;;;;;;4972312;28;20390;-63
2022/12/23 13:41:25;;;;;;;;;;;10.80;99.90;;;;;;4971616;28;19926;-63
2022/12/23 13:43:54;;;;;;;;;;;10.80;99.90;;;;;;4971762;28;19988;-63
2022/12/23 13:46:25;;;;;;;;;;;10.90;99.90;;;;;;4972294;28;20341;-63
2022/12/23 13:48:57;;;;;;;;;;;10.90;99.90;;;;;;4972050;28;19971;-63
2022/12/23 13:51:27;;;;;;;;;;;10.90;99.90;;;;;;4971710;28;19932;-63
2022/12/23 13:53:57;;;;;;;;;;;10.80;99.90;;;;;;4970767;28;19932;-63
2022/12/23 13:56:38;;;;;;;;;;;10.80;99.90;;;;;;4969395;28;20029;-63
2022/12/23 13:59:08;;;;;;;;;;;10.80;99.90;;;;;;4967603;28;19926;-63
2022/12/23 14:01:42;;;;;;;;;;;10.70;99.90;;;;;;4971579;28;19926;-63
2022/12/23 14:04:29;;;;;;;;;;;10.70;99.90;;;;;;4972028;28;20349;-63
2022/12/23 14:06:58;;;;;;;;;;;10.70;99.90;;;;;;4971793;28;19927;-63
2022/12/23 14:09:30;;;;;;;;;;;10.80;99.90;;;;;;4971699;28;19957;-63
2022/12/23 14:12:07;;;;;;;;;;;10.80;99.90;;;;;;4971338;28;20431;-63
2022/12/23 14:14:36;;;;;;;;;;;10.80;99.90;;;;;;4971513;28;19933;-63
2022/12/23 14:17:08;;;;;;;;;;;10.80;99.90;;;;;;4971857;28;19938;-63
2022/12/23 14:19:54;;;;;;;;;;;10.70;99.90;;;;;;4970964;28;20394;-64
2022/12/23 14:22:30;;;;;;;;;;;10.70;99.90;;;;;;4971764;28;19926;-63
2022/12/23 14:25:26;;;;;;;;;;;10.70;99.90;;;;;;4971687;28;20025;-63
2022/12/23 14:27:59;;;;;;;;;;;10.80;99.90;;;;;;4965376;28;20061;-63
2022/12/23 14:30:33;;;;;;;;;;;10.80;99.90;;;;;;4971102;28;19926;-63
2022/12/23 14:33:02;;;;;;;;;;;10.80;99.90;;;;;;4971666;28;19930;-63
2022/12/23 14:35:44;;;;;;;;;;;10.80;99.90;;;;;;4971730;28;19930;-64
2022/12/23 14:38:23;;;;;;;;;;;10.70;99.90;;;;;;4971055;28;19930;-63
2022/12/23 14:40:55;;;;;;;;;;;10.70;99.90;;;;;;4970685;28;19948;-64
2022/12/23 14:43:25;;;;;;;;;;;10.70;99.90;;;;;;4971068;28;20387;-63
2022/12/23 14:45:54;;;;;;;;;;;10.70;99.90;;;;;;4971425;28;20044;-64
2022/12/23 14:48:40;;;;;;;;;;;10.70;99.90;;;;;;4964025;28;19971;-63
2022/12/23 14:51:21;;;;;;;;;;;10.80;99.90;;;;;;4951543;29;19927;-64
2022/12/23 14:54:04;;;;;;;;;;;10.80;99.90;;;;;;4952002;29;20030;-64
2022/12/23 14:56:40;;;;;;;;;;;10.80;99.90;;;;;;4964496;28;20306;-64
2022/12/23 14:59:15;;;;;;;;;;;10.90;99.90;;;;;;4966910;28;20284;-64
2022/12/23 15:01:46;;;;;;;;;;;10.90;99.90;;;;;;4970537;28;20025;-64
2022/12/23 15:04:16;;;;;;;;;;;10.90;99.90;;;;;;4970375;28;20078;-63
2022/12/23 15:06:45;;;;;;;;;;;10.90;99.90;;;;;;4971153;28;19926;-63
2022/12/23 15:09:20;;;;;;;;;;;10.80;99.90;;;;;;4970789;28;19934;-63
2022/12/23 15:11:48;;;;;;;;;;;10.90;99.90;;;;;;4970269;28;19930;-63
2022/12/23 15:14:21;;;;;;;;;;;10.90;99.90;;;;;;4970947;28;19932;-64
2022/12/23 15:16:49;;;;;;;;;;;10.90;99.90;;;;;;4970976;28;20451;-64